Time;durP1;ratioP1;P1;durP2;ratioP2;P2;SDS_P1;SDS_P2;PMS_P1;PMS_P2;Temp;Humidity;BMP_temperature;BMP_pressure;BME280_temperature;BME280_humidity;BME280_pressure;Samples;Min_cycle;Max_cycle;Signal;HPM_P1;HPM_P2
2023/08/17 00:01:24;;;;;;;5.25;1.40;;;17.40;99.90;;;;;;5075796;28;20081;-75
2023/08/17 00:03:50;;;;;;;7.07;1.60;;;17.40;99.90;;;;;;5059091;28;20093;-75
2023/08/17 00:06:16;;;;;;;5.80;1.35;;;17.40;99.90;;;;;;5075945;28;20493;-75
2023/08/17 00:08:42;;;;;;;5.07;1.40;;;17.40;99.90;;;;;;5075669;28;20430;-75
2023/08/17 00:11:08;;;;;;;5.70;1.30;;;17.40;99.90;;;;;;5075487;28;20040;-75
2023/08/17 00:13:34;;;;;;;6.13;1.25;;;17.40;99.90;;;;;;5075497;28;20051;-75
2023/08/17 00:16:00;;;;;;;3.90;1.40;;;17.50;99.90;;;;;;5075470;28;20047;-75
2023/08/17 00:18:26;;;;;;;6.28;1.45;;;17.40;99.90;;;;;;5075675;28;20044;-75
2023/08/17 00:20:52;;;;;;;4.38;1.20;;;17.50;99.90;;;;;;5075375;28;20036;-75
2023/08/17 00:23:18;;;;;;;6.03;1.45;;;17.40;99.90;;;;;;5075473;28;20077;-75
2023/08/17 00:25:43;;;;;;;6.57;1.60;;;17.40;99.90;;;;;;5075305;28;20489;-75
2023/08/17 00:28:09;;;;;;;8.40;1.75;;;17.40;99.90;;;;;;5075279;28;20063;-75
2023/08/17 00:30:36;;;;;;;6.57;1.20;;;17.40;99.90;;;;;;5075205;28;20060;-75
2023/08/17 00:33:02;;;;;;;5.72;1.50;;;17.40;99.90;;;;;;5075091;28;20037;-75
2023/08/17 00:35:28;;;;;;;8.70;1.77;;;17.40;99.90;;;;;;5058444;28;20037;-75
2023/08/17 00:37:54;;;;;;;6.00;1.45;;;17.40;99.90;;;;;;5075095;28;20037;-75
2023/08/17 00:40:19;;;;;;;6.95;1.38;;;17.40;99.90;;;;;;5058387;28;20037;-75
2023/08/17 00:42:45;;;;;;;4.93;1.20;;;17.40;99.90;;;;;;5074907;28;20045;-75
2023/08/17 00:45:11;;;;;;;7.82;1.23;;;17.40;99.90;;;;;;5074846;28;20052;-75
2023/08/17 00:47:37;;;;;;;6.88;1.30;;;17.30;99.90;;;;;;5074911;28;20064;-75
2023/08/17 00:50:03;;;;;;;6.25;1.45;;;17.30;99.90;;;;;;5074820;28;20067;-75
2023/08/17 00:52:31;;;;;;;9.88;1.55;;;17.30;99.90;;;;;;5074711;28;20142;-75
2023/08/17 00:54:58;;;;;;;5.15;1.27;;;17.30;99.90;;;;;;5074985;28;20071;-75
2023/08/17 00:57:23;;;;;;;8.32;1.63;;;17.30;99.90;;;;;;5074736;28;20040;-75
2023/08/17 00:59:50;;;;;;;6.47;1.38;;;17.30;99.90;;;;;;5074658;28;20040;-75
2023/08/17 01:02:17;;;;;;;5.68;1.33;;;17.20;99.90;;;;;;5074548;28;20052;-75
2023/08/17 01:04:43;;;;;;;6.30;1.30;;;17.20;99.90;;;;;;5074509;28;20046;-75
2023/08/17 01:07:08;;;;;;;4.95;1.40;;;17.20;99.90;;;;;;5074448;28;20107;-75
2023/08/17 01:09:34;;;;;;;10.35;1.63;;;17.20;99.90;;;;;;5074317;28;20036;-75
2023/08/17 01:12:24;;;;;;;3.75;1.40;;;17.10;99.90;;;;;;5074432;28;20079;-75
2023/08/17 01:15:10;;;;;;;5.95;1.20;;;17.20;99.90;;;;;;5074707;28;20090;-75
2023/08/17 01:17:44;;;;;;;4.38;1.27;;;17.10;99.90;;;;;;5074692;28;20131;-75
2023/08/17 01:20:13;;;;;;;5.45;1.40;;;17.10;99.90;;;;;;5074631;28;20040;-75
2023/08/17 01:22:42;;;;;;;5.03;1.40;;;17.00;99.90;;;;;;5074223;28;20040;-75
2023/08/17 01:25:08;;;;;;;6.20;1.60;;;17.00;99.90;;;;;;5057513;28;20530;-75
2023/08/17 01:27:40;;;;;;;5.50;1.48;;;17.00;99.90;;;;;;5057529;28;20032;-75
2023/08/17 01:30:08;;;;;;;6.88;1.38;;;17.00;99.90;;;;;;5057494;28;20040;-75
2023/08/17 01:32:40;;;;;;;7.10;1.52;;;17.00;99.90;;;;;;5074051;28;20040;-75
2023/08/17 01:35:21;;;;;;;5.77;1.57;;;16.90;99.90;;;;;;5074106;28;20055;-75
2023/08/17 01:37:50;;;;;;;8.57;1.65;;;16.90;99.90;;;;;;5074069;28;20408;-75
2023/08/17 01:40:18;;;;;;;6.03;1.60;;;16.90;99.90;;;;;;5073938;28;20051;-75
2023/08/17 01:42:43;;;;;;;5.28;1.40;;;16.90;99.90;;;;;;5057134;28;20036;-75
2023/08/17 01:45:10;;;;;;;4.35;1.45;;;16.80;99.90;;;;;;5073789;28;20044;-75
2023/08/17 01:47:36;;;;;;;7.45;1.65;;;16.80;99.90;;;;;;5074053;28;20127;-75
2023/08/17 01:50:01;;;;;;;5.78;1.50;;;16.80;99.90;;;;;;5057086;28;20607;-75
2023/08/17 01:52:28;;;;;;;5.72;1.27;;;16.80;99.90;;;;;;5073612;28;20040;-75
2023/08/17 01:54:54;;;;;;;4.95;1.50;;;16.80;99.90;;;;;;5073886;28;20032;-75
2023/08/17 01:57:19;;;;;;;5.38;1.33;;;16.80;99.90;;;;;;5073655;28;20516;-75
2023/08/17 01:59:45;;;;;;;6.15;1.52;;;16.70;99.90;;;;;;5073550;28;20036;-75
2023/08/17 02:02:14;;;;;;;5.90;1.40;;;16.80;99.90;;;;;;5073468;28;20055;-75
2023/08/17 02:04:40;;;;;;;5.35;1.30;;;16.70;99.90;;;;;;5073401;28;20478;-75
2023/08/17 02:07:05;;;;;;;4.90;1.42;;;16.70;99.90;;;;;;5056740;28;20133;-75
2023/08/17 02:09:31;;;;;;;4.75;1.33;;;16.70;99.90;;;;;;5073208;28;20039;-75
2023/08/17 02:11:56;;;;;;;4.40;1.17;;;16.70;99.90;;;;;;5073514;28;20043;-75
2023/08/17 02:14:22;;;;;;;5.65;1.30;;;16.60;99.90;;;;;;5073515;28;20485;-75
2023/08/17 02:16:48;;;;;;;7.43;1.55;;;16.60;99.90;;;;;;5073196;28;20489;-74
2023/08/17 02:19:14;;;;;;;8.05;1.75;;;16.70;99.90;;;;;;5056179;28;20511;-75
2023/08/17 02:21:40;;;;;;;6.55;1.38;;;16.70;99.90;;;;;;5073046;28;20119;-75
2023/08/17 02:24:06;;;;;;;5.55;1.48;;;16.60;99.90;;;;;;5072953;28;20051;-75
2023/08/17 02:26:31;;;;;;;5.28;1.50;;;16.60;99.90;;;;;;5073020;28;20041;-75
2023/08/17 02:28:57;;;;;;;5.65;1.20;;;16.60;99.90;;;;;;5056639;28;20039;-75
2023/08/17 02:31:22;;;;;;;4.47;1.33;;;16.60;99.90;;;;;;5072896;28;20493;-75
2023/08/17 02:33:48;;;;;;;5.22;1.30;;;16.60;99.90;;;;;;5072815;28;20039;-75
2023/08/17 02:36:14;;;;;;;6.15;1.33;;;16.60;99.90;;;;;;5073069;28;20089;-75
2023/08/17 02:38:39;;;;;;;6.22;1.63;;;16.50;99.90;;;;;;5072775;28;20600;-75
2023/08/17 02:41:05;;;;;;;4.30;1.48;;;16.50;99.90;;;;;;5072716;28;20048;-75
2023/08/17 02:43:30;;;;;;;5.75;1.50;;;16.50;99.90;;;;;;5056112;28;20066;-75
2023/08/17 02:45:56;;;;;;;7.15;1.90;;;16.50;99.90;;;;;;5072875;28;20044;-75
2023/08/17 02:48:22;;;;;;;4.55;1.30;;;16.50;99.90;;;;;;5072567;28;20493;-75
2023/08/17 02:50:47;;;;;;;5.47;1.80;;;16.40;99.90;;;;;;5055883;28;20032;-75
2023/08/17 02:53:13;;;;;;;6.25;1.40;;;16.40;99.90;;;;;;5072461;28;20072;-75
2023/08/17 02:55:39;;;;;;;6.10;1.50;;;16.40;99.90;;;;;;5072460;28;20076;-75
2023/08/17 02:58:04;;;;;;;4.40;1.30;;;16.40;99.90;;;;;;5072460;28;20032;-75
2023/08/17 03:00:30;;;;;;;6.95;1.67;;;16.40;99.90;;;;;;5072411;28;20037;-75
2023/08/17 03:02:55;;;;;;;8.50;1.50;;;16.40;99.90;;;;;;5072263;28;20032;-75
2023/08/17 03:05:21;;;;;;;8.18;1.75;;;16.40;99.90;;;;;;5072285;28;20082;-75
2023/08/17 03:07:46;;;;;;;9.00;1.52;;;16.40;99.90;;;;;;5055859;28;20556;-75
2023/08/17 03:10:12;;;;;;;6.07;1.65;;;16.30;99.90;;;;;;5072016;28;20115;-75
2023/08/17 03:12:38;;;;;;;5.63;1.58;;;16.40;99.90;;;;;;5072157;28;20037;-75
2023/08/17 03:15:06;;;;;;;9.27;1.95;;;16.40;99.90;;;;;;5072216;28;20086;-75
2023/08/17 03:17:31;;;;;;;10.52;1.80;;;16.30;99.90;;;;;;5072424;28;20063;-75
2023/08/17 03:19:59;;;;;;;6.85;1.98;;;16.30;99.90;;;;;;5072077;28;20408;-75
2023/08/17 03:22:25;;;;;;;6.40;1.58;;;16.40;99.90;;;;;;5071992;28;20493;-75
2023/08/17 03:24:50;;;;;;;5.00;1.80;;;16.30;99.90;;;;;;5071992;28;20036;-75
2023/08/17 03:27:16;;;;;;;5.32;1.65;;;16.40;99.90;;;;;;5072039;28;20040;-75
2023/08/17 03:29:41;;;;;;;7.82;1.92;;;16.30;99.90;;;;;;5071572;28;20037;-75
2023/08/17 03:32:07;;;;;;;10.25;1.77;;;16.30;99.90;;;;;;5071477;28;20032;-75
2023/08/17 03:34:32;;;;;;;8.20;1.60;;;16.30;99.90;;;;;;5055249;28;20062;-75
2023/08/17 03:36:58;;;;;;;6.45;1.55;;;16.30;99.90;;;;;;5055507;28;20052;-75
2023/08/17 03:39:24;;;;;;;8.43;1.83;;;16.30;99.90;;;;;;5071908;28;20490;-75
2023/08/17 03:41:49;;;;;;;4.53;1.55;;;16.30;99.90;;;;;;5071813;28;20091;-75
2023/08/17 03:44:15;;;;;;;6.53;1.63;;;16.30;99.90;;;;;;5071920;28;20037;-75
2023/08/17 03:46:41;;;;;;;4.72;1.75;;;16.30;99.90;;;;;;5072053;28;20041;-75
2023/08/17 03:49:07;;;;;;;8.52;2.00;;;16.30;99.90;;;;;;5071771;28;20119;-75
2023/08/17 03:51:32;;;;;;;8.85;1.77;;;16.30;99.90;;;;;;5071705;28;20029;-75
2023/08/17 03:53:58;;;;;;;8.88;1.98;;;16.20;99.90;;;;;;5071664;28;20089;-75
2023/08/17 03:56:24;;;;;;;7.95;2.30;;;16.30;99.90;;;;;;5071957;28;20158;-75
2023/08/17 03:58:50;;;;;;;9.32;1.95;;;16.20;99.90;;;;;;5071722;28;20513;-75
2023/08/17 04:01:16;;;;;;;5.75;1.80;;;16.30;99.90;;;;;;5071691;28;20271;-75
2023/08/17 04:03:42;;;;;;;7.68;1.92;;;16.30;99.90;;;;;;5071541;28;20128;-75
2023/08/17 04:06:10;;;;;;;8.05;2.08;;;16.30;99.90;;;;;;5071624;28;20048;-75
2023/08/17 04:08:37;;;;;;;9.13;2.20;;;16.30;99.90;;;;;;5071647;28;20115;-75
2023/08/17 04:11:03;;;;;;;4.68;1.70;;;16.30;99.90;;;;;;5054770;28;20442;-75
2023/08/17 04:13:29;;;;;;;6.47;1.92;;;16.30;99.90;;;;;;5071495;28;20044;-75
2023/08/17 04:15:54;;;;;;;6.65;1.88;;;16.30;99.90;;;;;;5071557;28;20398;-75
2023/08/17 04:18:20;;;;;;;9.15;1.90;;;16.30;99.90;;;;;;5071477;28;20107;-76
2023/08/17 04:20:46;;;;;;;8.85;2.00;;;16.30;99.90;;;;;;5071437;28;20127;-75
2023/08/17 04:23:11;;;;;;;9.15;2.22;;;16.30;99.90;;;;;;5071306;28;20036;-75
2023/08/17 04:25:37;;;;;;;7.32;1.80;;;16.40;99.90;;;;;;5071427;28;20037;-75
2023/08/17 04:28:03;;;;;;;7.03;1.73;;;16.40;99.90;;;;;;5071396;28;20044;-75
2023/08/17 04:30:29;;;;;;;6.07;1.58;;;16.40;99.90;;;;;;5071396;28;20068;-75
2023/08/17 04:32:54;;;;;;;9.73;1.90;;;16.40;99.90;;;;;;5071313;28;20060;-75
2023/08/17 04:35:20;;;;;;;8.93;1.83;;;16.40;99.90;;;;;;5071341;28;20071;-75
2023/08/17 04:37:47;;;;;;;6.82;1.88;;;16.40;99.90;;;;;;5071576;28;20405;-75
2023/08/17 04:40:13;;;;;;;7.65;1.85;;;16.40;99.90;;;;;;5071306;28;20098;-75
2023/08/17 04:42:39;;;;;;;9.25;1.80;;;16.50;99.90;;;;;;5073797;28;20489;-75
2023/08/17 04:45:05;;;;;;;6.65;1.55;;;16.50;99.90;;;;;;5074850;28;20036;-75
2023/08/17 04:47:31;;;;;;;5.28;1.48;;;16.50;99.90;;;;;;5074870;28;20036;-75
2023/08/17 04:49:56;;;;;;;8.15;1.75;;;16.50;99.90;;;;;;5074817;28;20040;-75
2023/08/17 04:52:22;;;;;;;4.50;1.30;;;16.50;99.90;;;;;;5074700;28;20037;-75
2023/08/17 04:54:48;;;;;;;6.90;1.70;;;16.60;99.90;;;;;;5074709;28;20037;-74
2023/08/17 04:57:13;;;;;;;6.18;1.75;;;16.60;99.90;;;;;;5058321;28;20083;-73
2023/08/17 04:59:39;;;;;;;7.25;1.98;;;16.60;99.90;;;;;;5074705;28;20048;-73
2023/08/17 05:02:05;;;;;;;7.28;1.60;;;16.60;99.90;;;;;;5074561;28;20044;-73
2023/08/17 05:04:31;;;;;;;6.65;1.60;;;16.60;99.90;;;;;;5074687;28;20039;-73
2023/08/17 05:06:56;;;;;;;4.88;1.65;;;16.60;99.90;;;;;;5074601;28;20397;-73
2023/08/17 05:09:22;;;;;;;4.80;1.52;;;16.70;99.90;;;;;;5074401;28;20028;-73
2023/08/17 05:11:48;;;;;;;7.90;1.92;;;16.70;99.90;;;;;;5074707;28;20033;-73
2023/08/17 05:14:13;;;;;;;6.13;1.63;;;16.70;99.90;;;;;;5074468;28;20528;-73
2023/08/17 05:16:39;;;;;;;5.75;1.60;;;16.70;99.90;;;;;;5074434;28;20071;-73
2023/08/17 05:19:05;;;;;;;8.50;1.55;;;16.70;99.90;;;;;;5074626;28;20044;-73
2023/08/17 05:21:30;;;;;;;7.45;1.65;;;16.70;99.90;;;;;;5074538;28;20090;-74
2023/08/17 05:23:56;;;;;;;6.40;1.60;;;16.80;99.90;;;;;;5074161;28;20124;-73
2023/08/17 05:26:22;;;;;;;5.90;1.70;;;16.70;99.90;;;;;;5074220;28;20078;-73
2023/08/17 05:28:48;;;;;;;5.75;1.52;;;16.80;99.90;;;;;;5074188;28;20041;-73
2023/08/17 05:31:13;;;;;;;7.55;2.00;;;16.70;99.90;;;;;;5074107;28;20039;-73
2023/08/17 05:33:40;;;;;;;4.40;1.55;;;16.80;99.90;;;;;;5057400;28;20099;-73
2023/08/17 05:36:07;;;;;;;4.38;1.60;;;16.80;99.90;;;;;;5074042;28;20041;-73
2023/08/17 05:38:32;;;;;;;6.90;1.60;;;16.80;99.90;;;;;;5074233;28;20123;-73
2023/08/17 05:40:59;;;;;;;6.07;1.80;;;16.80;99.90;;;;;;5073932;28;20471;-73
2023/08/17 05:43:25;;;;;;;4.55;1.50;;;16.80;99.90;;;;;;5057085;28;20086;-73
2023/08/17 05:45:51;;;;;;;6.78;1.70;;;16.80;99.90;;;;;;5073840;28;20520;-73
2023/08/17 05:48:20;;;;;;;6.45;1.80;;;16.80;99.90;;;;;;5074035;28;20036;-73
2023/08/17 05:50:46;;;;;;;5.45;1.70;;;16.90;99.90;;;;;;5073758;28;20047;-73
2023/08/17 05:53:12;;;;;;;6.00;1.67;;;16.90;99.90;;;;;;5072931;28;20036;-73
2023/08/17 05:55:37;;;;;;;8.00;1.80;;;16.90;99.90;;;;;;5073672;28;20611;-73
2023/08/17 05:58:03;;;;;;;7.72;1.73;;;16.90;99.90;;;;;;5073624;28;20036;-73
2023/08/17 06:00:29;;;;;;;7.75;1.75;;;16.90;99.90;;;;;;5073570;28;20041;-73
2023/08/17 06:03:00;;;;;;;10.57;1.80;;;16.90;99.90;;;;;;5073457;28;20028;-73
2023/08/17 06:05:27;;;;;;;4.88;1.52;;;16.90;99.90;;;;;;5073507;28;20098;-73
2023/08/17 06:07:52;;;;;;;6.05;1.50;;;16.90;99.90;;;;;;5056787;28;20044;-73
2023/08/17 06:10:18;;;;;;;8.43;1.65;;;17.00;99.90;;;;;;5073168;28;20039;-75
2023/08/17 06:12:44;;;;;;;7.45;1.50;;;17.00;99.90;;;;;;5056959;28;20036;-74
2023/08/17 06:15:10;;;;;;;6.97;2.00;;;17.00;99.90;;;;;;5056908;28;20127;-74
2023/08/17 06:17:35;;;;;;;6.43;1.55;;;16.90;99.90;;;;;;5073484;28;20044;-74
2023/08/17 06:20:02;;;;;;;6.47;1.75;;;16.90;99.90;;;;;;5073185;28;20045;-74
2023/08/17 06:22:28;;;;;;;5.70;1.48;;;16.90;99.90;;;;;;5073016;28;20056;-74
2023/08/17 06:24:54;;;;;;;8.73;1.60;;;17.00;99.90;;;;;;5072996;28;20043;-74
2023/08/17 06:27:19;;;;;;;7.50;2.00;;;17.00;99.90;;;;;;5073030;28;20043;-74
2023/08/17 06:29:45;;;;;;;7.97;1.85;;;17.00;99.90;;;;;;5072952;28;20036;-74
2023/08/17 06:32:10;;;;;;;7.57;1.75;;;17.00;99.90;;;;;;5072842;28;20032;-74
2023/08/17 06:34:36;;;;;;;6.80;1.70;;;17.00;99.90;;;;;;5072879;28;20085;-74
2023/08/17 06:37:03;;;;;;;5.32;1.52;;;17.00;99.90;;;;;;5073099;28;20036;-74
2023/08/17 06:39:29;;;;;;;6.10;1.70;;;17.00;99.90;;;;;;5072739;28;20515;-74
2023/08/17 06:41:54;;;;;;;9.00;1.70;;;17.10;99.90;;;;;;5072916;28;20040;-74
2023/08/17 06:44:20;;;;;;;6.22;1.38;;;17.10;99.90;;;;;;5072622;28;20124;-74
2023/08/17 06:46:46;;;;;;;4.28;1.30;;;17.10;99.90;;;;;;5072601;28;20047;-74
2023/08/17 06:49:12;;;;;;;7.78;1.52;;;17.20;99.90;;;;;;5072843;28;20037;-74
2023/08/17 06:51:38;;;;;;;6.88;1.88;;;17.20;99.90;;;;;;5072581;28;20041;-74
2023/08/17 06:54:06;;;;;;;5.70;1.70;;;17.30;99.90;;;;;;5072670;28;20086;-74
2023/08/17 06:56:32;;;;;;;4.85;1.23;;;17.30;99.90;;;;;;5072437;28;20511;-74
2023/08/17 06:58:57;;;;;;;8.68;1.85;;;17.30;99.90;;;;;;5072453;28;20040;-74
2023/08/17 07:01:23;;;;;;;5.47;1.67;;;17.40;99.90;;;;;;5072896;28;20194;-75
2023/08/17 07:03:48;;;;;;;7.78;1.40;;;17.50;99.90;;;;;;5072244;28;20481;-74
2023/08/17 07:06:14;;;;;;;4.68;1.40;;;17.40;99.90;;;;;;5072778;28;20048;-74
2023/08/17 07:08:40;;;;;;;4.70;1.30;;;17.50;99.90;;;;;;5072946;28;20140;-74
2023/08/17 07:11:06;;;;;;;5.10;1.35;;;17.60;99.90;;;;;;5055981;28;20478;-74
2023/08/17 07:13:31;;;;;;;6.03;1.27;;;17.60;99.90;;;;;;5055521;28;20033;-74
2023/08/17 07:15:57;;;;;;;6.78;1.20;;;17.60;99.90;;;;;;5072460;28;20067;-74
2023/08/17 07:18:23;;;;;;;5.80;1.80;;;17.70;99.90;;;;;;5072144;28;20516;-74
2023/08/17 07:20:49;;;;;;;4.30;1.73;;;17.60;99.90;;;;;;5055389;28;20036;-74
2023/08/17 07:23:15;;;;;;;6.85;1.48;;;17.60;99.90;;;;;;5072027;28;20107;-74
2023/08/17 07:25:41;;;;;;;6.70;1.50;;;17.70;99.90;;;;;;5072355;28;20114;-74
2023/08/17 07:28:06;;;;;;;4.15;1.05;;;17.70;99.90;;;;;;5072020;28;20537;-74
2023/08/17 07:30:32;;;;;;;5.20;1.67;;;17.70;99.90;;;;;;5071951;28;20123;-74
2023/08/17 07:32:57;;;;;;;4.93;1.33;;;17.80;99.90;;;;;;5071921;28;20089;-74
2023/08/17 07:35:23;;;;;;;4.47;1.17;;;18.00;99.90;;;;;;5071953;28;20037;-74
2023/08/17 07:37:49;;;;;;;4.53;1.48;;;18.10;99.90;;;;;;5071913;28;20032;-74
2023/08/17 07:40:14;;;;;;;7.30;1.20;;;18.10;99.90;;;;;;5071871;28;20043;-75
2023/08/17 07:42:40;;;;;;;4.65;1.10;;;18.20;99.90;;;;;;5072223;28;20056;-71
2023/08/17 07:45:07;;;;;;;6.80;1.45;;;18.30;99.90;;;;;;5072035;28;20037;-71
2023/08/17 07:47:34;;;;;;;6.63;1.30;;;18.30;99.90;;;;;;5071801;28;20048;-72
2023/08/17 07:50:00;;;;;;;6.13;1.10;;;18.30;99.90;;;;;;5071756;28;20115;-72
2023/08/17 07:52:25;;;;;;;5.88;1.52;;;18.30;99.90;;;;;;5071633;28;20075;-72
2023/08/17 07:54:51;;;;;;;5.13;1.10;;;18.30;99.90;;;;;;5072001;28;20045;-72
2023/08/17 07:57:17;;;;;;;3.58;1.17;;;18.30;99.90;;;;;;5071767;28;20398;-72
2023/08/17 07:59:42;;;;;;;4.10;1.20;;;18.30;99.90;;;;;;5071666;28;20044;-72
2023/08/17 08:02:08;;;;;;;4.88;0.90;;;18.40;99.90;;;;;;5071594;28;20105;-72
2023/08/17 08:04:33;;;;;;;6.53;1.10;;;18.40;99.90;;;;;;5071767;28;20036;-72
2023/08/17 08:06:59;;;;;;;6.25;1.00;;;18.40;99.90;;;;;;5071598;28;20386;-72
2023/08/17 08:09:25;;;;;;;5.35;0.93;;;18.50;99.90;;;;;;5055034;28;20033;-72
2023/08/17 08:11:50;;;;;;;4.50;1.00;;;18.50;99.90;;;;;;5073355;28;20397;-72
2023/08/17 08:14:16;;;;;;;7.70;1.10;;;18.60;99.90;;;;;;5071612;28;20044;-71
2023/08/17 08:16:42;;;;;;;5.57;1.10;;;18.60;99.90;;;;;;5072495;28;20044;-71
2023/08/17 08:19:08;;;;;;;7.20;1.08;;;18.70;99.90;;;;;;5075457;28;20067;-71
2023/08/17 08:21:33;;;;;;;3.55;1.10;;;18.80;99.90;;;;;;5075471;28;20044;-72
2023/08/17 08:23:59;;;;;;;3.95;1.15;;;18.90;99.90;;;;;;5075497;28;20095;-71
2023/08/17 08:26:24;;;;;;;4.80;0.95;;;18.90;99.90;;;;;;5075354;28;20485;-72
2023/08/17 08:28:50;;;;;;;2.88;0.80;;;19.00;99.90;;;;;;5077020;28;20044;-72
2023/08/17 08:31:15;;;;;;;3.33;0.82;;;19.10;99.90;;;;;;5076450;28;20040;-71
2023/08/17 08:33:41;;;;;;;4.82;1.00;;;19.20;99.90;;;;;;5075232;28;20047;-72
2023/08/17 08:36:07;;;;;;;6.45;1.20;;;19.20;99.90;;;;;;5076418;28;20060;-72
2023/08/17 08:38:33;;;;;;;2.83;0.93;;;19.40;99.90;;;;;;5075111;28;20064;-71
2023/08/17 08:40:59;;;;;;;5.28;1.42;;;19.50;99.90;;;;;;5075053;28;20028;-72
2023/08/17 08:43:24;;;;;;;4.55;1.13;;;19.70;99.90;;;;;;5074899;28;20090;-72
2023/08/17 08:45:51;;;;;;;5.80;1.23;;;19.80;99.90;;;;;;5074940;28;20134;-71
2023/08/17 08:48:19;;;;;;;4.53;0.88;;;19.90;99.90;;;;;;5075081;28;20049;-71
2023/08/17 08:50:46;;;;;;;4.20;0.90;;;20.00;99.90;;;;;;5075066;28;20511;-72
2023/08/17 08:53:17;;;;;;;4.35;1.00;;;20.10;99.90;;;;;;5074971;28;20045;-71
2023/08/17 08:56:01;;;;;;;4.45;1.10;;;20.20;99.90;;;;;;5074797;28;20090;-71
2023/08/17 08:58:28;;;;;;;4.35;1.05;;;20.20;99.90;;;;;;5074745;28;20049;-72
2023/08/17 09:00:54;;;;;;;6.60;1.10;;;20.00;99.90;;;;;;5075999;28;20048;-72
2023/08/17 09:03:21;;;;;;;3.25;0.90;;;20.00;99.90;;;;;;5074841;28;20051;-72
2023/08/17 09:05:50;;;;;;;6.47;1.00;;;19.90;99.90;;;;;;5074845;28;20401;-72
2023/08/17 09:08:26;;;;;;;3.40;1.00;;;19.90;99.90;;;;;;5074608;28;20401;-72
2023/08/17 09:10:51;;;;;;;5.53;1.13;;;19.80;99.90;;;;;;5074465;28;20067;-72
2023/08/17 09:13:17;;;;;;;4.30;1.10;;;19.70;99.90;;;;;;5074466;28;20072;-72
2023/08/17 09:15:42;;;;;;;9.43;1.33;;;19.70;99.90;;;;;;5074690;28;20151;-72
2023/08/17 09:18:08;;;;;;;5.18;1.58;;;19.70;99.90;;;;;;5074466;28;20472;-72
2023/08/17 09:20:45;;;;;;;9.15;1.23;;;19.70;99.90;;;;;;5074643;28;20063;-72
2023/08/17 09:23:12;;;;;;;9.38;1.10;;;19.70;99.90;;;;;;5074304;28;20048;-72
2023/08/17 09:25:42;;;;;;;3.55;1.10;;;19.70;99.90;;;;;;5074181;28;20037;-72
2023/08/17 09:28:14;;;;;;;4.03;0.93;;;19.70;99.90;;;;;;5072838;28;20055;-72
2023/08/17 09:30:59;;;;;;;5.03;0.88;;;19.70;99.90;;;;;;5074245;28;20052;-72
2023/08/17 09:33:30;;;;;;;6.28;1.23;;;19.70;99.90;;;;;;5074102;28;20045;-72
2023/08/17 09:35:57;;;;;;;4.05;0.90;;;19.70;99.90;;;;;;5074133;28;20036;-72
2023/08/17 09:38:23;;;;;;;6.05;1.30;;;19.80;99.90;;;;;;5074032;28;20040;-72
2023/08/17 09:40:49;;;;;;;5.57;0.85;;;19.90;99.90;;;;;;5073976;28;20044;-72
2023/08/17 09:43:15;;;;;;;5.10;0.93;;;19.90;99.90;;;;;;5073835;28;20036;-72
2023/08/17 09:45:46;;;;;;;3.97;0.88;;;20.00;99.90;;;;;;5073869;28;20040;-72
2023/08/17 09:48:14;;;;;;;6.93;1.15;;;20.10;99.90;;;;;;5073950;28;20075;-72
2023/08/17 09:50:40;;;;;;;4.70;1.10;;;20.10;99.90;;;;;;5074034;28;20447;-72
2023/08/17 09:53:05;;;;;;;6.35;1.08;;;20.00;99.90;;;;;;5073630;28;20033;-72
2023/08/17 09:55:33;;;;;;;5.05;1.38;;;20.00;99.90;;;;;;5073671;28;20044;-72
2023/08/17 09:58:00;;;;;;;3.80;0.90;;;20.00;99.90;;;;;;5075485;28;20028;-72
2023/08/17 10:00:27;;;;;;;4.65;1.10;;;19.90;99.90;;;;;;5073605;28;20047;-74
2023/08/17 10:02:53;;;;;;;5.07;1.20;;;19.90;99.90;;;;;;5073517;28;20037;-75
2023/08/17 10:05:23;;;;;;;4.47;0.80;;;20.00;99.90;;;;;;5073497;28;20036;-72
2023/08/17 10:07:54;;;;;;;5.25;1.00;;;20.00;99.90;;;;;;5073843;28;20048;-72
2023/08/17 10:10:26;;;;;;;3.63;1.15;;;20.00;99.90;;;;;;5073643;28;20123;-73
2023/08/17 10:13:13;;;;;;;3.72;0.90;;;20.10;99.90;;;;;;5073328;28;20119;-75
2023/08/17 10:15:48;;;;;;;5.88;1.30;;;20.20;99.90;;;;;;5073707;28;20040;-73
2023/08/17 10:18:22;;;;;;;6.38;1.10;;;20.20;99.90;;;;;;5073251;28;20448;-73
2023/08/17 10:21:11;;;;;;;5.68;1.27;;;20.30;99.90;;;;;;5073439;28;20052;-72
2023/08/17 10:23:38;;;;;;;3.15;1.00;;;20.40;99.90;;;;;;5073045;28;20040;-73
2023/08/17 10:26:04;;;;;;;3.95;1.30;;;20.50;99.90;;;;;;5073160;28;20059;-73
2023/08/17 10:28:32;;;;;;;3.25;0.93;;;20.60;99.90;;;;;;5073304;28;20454;-73
2023/08/17 10:30:58;;;;;;;9.70;1.20;;;20.70;99.90;;;;;;5072949;28;20055;-72
2023/08/17 10:33:25;;;;;;;4.35;1.42;;;20.80;99.90;;;;;;5072900;28;20036;-72
2023/08/17 10:35:52;;;;;;;6.30;1.20;;;20.80;99.90;;;;;;5073152;28;20082;-72
2023/08/17 10:38:18;;;;;;;3.85;1.48;;;20.80;99.90;;;;;;5073117;28;20048;-72
2023/08/17 10:40:44;;;;;;;8.00;1.27;;;20.70;99.90;;;;;;5072350;28;20043;-72
2023/08/17 10:43:11;;;;;;;5.97;1.52;;;20.70;99.90;;;;;;5072694;28;20117;-72
2023/08/17 10:45:38;;;;;;;5.30;1.25;;;20.70;99.90;;;;;;5055991;28;20511;-73
2023/08/17 10:48:07;;;;;;;4.15;1.42;;;20.60;99.90;;;;;;5072695;28;20497;-72
2023/08/17 10:50:34;;;;;;;4.25;1.20;;;20.60;99.90;;;;;;5072810;28;20039;-73
2023/08/17 10:53:08;;;;;;;6.65;1.42;;;20.60;99.90;;;;;;5072933;28;20037;-73
2023/08/17 10:55:38;;;;;;;7.35;1.60;;;20.60;99.90;;;;;;5056445;28;20045;-73
2023/08/17 10:58:04;;;;;;;6.28;0.95;;;20.70;99.90;;;;;;5072764;28;20044;-73
2023/08/17 11:00:37;;;;;;;7.10;1.00;;;20.80;99.90;;;;;;5072402;28;20386;-73
2023/08/17 11:03:08;;;;;;;6.05;1.27;;;20.90;99.90;;;;;;5072369;28;20501;-72
2023/08/17 11:05:36;;;;;;;4.43;1.50;;;21.00;99.90;;;;;;5072300;28;20115;-72
2023/08/17 11:08:02;;;;;;;3.95;1.40;;;20.90;99.90;;;;;;5072309;28;20090;-72
2023/08/17 11:10:29;;;;;;;3.63;1.00;;;20.80;99.90;;;;;;5072381;28;20044;-72
2023/08/17 11:12:59;;;;;;;4.00;1.20;;;20.80;99.90;;;;;;5073650;28;20032;-72
2023/08/17 11:15:26;;;;;;;5.13;1.30;;;20.70;99.90;;;;;;5072494;28;20485;-73
2023/08/17 11:17:52;;;;;;;2.67;1.17;;;20.60;99.90;;;;;;5072138;28;20044;-73
2023/08/17 11:20:18;;;;;;;6.22;1.55;;;20.60;99.90;;;;;;5073667;28;20119;-73
2023/08/17 11:22:45;;;;;;;4.65;1.20;;;20.60;99.90;;;;;;5072029;28;20127;-72
2023/08/17 11:25:11;;;;;;;5.75;1.30;;;20.60;99.90;;;;;;5071985;28;20085;-73
2023/08/17 11:27:37;;;;;;;8.35;1.40;;;20.50;99.90;;;;;;5072006;28;20040;-73
2023/08/17 11:30:03;;;;;;;4.18;1.40;;;20.50;99.90;;;;;;5072028;28;20044;-73
2023/08/17 11:32:29;;;;;;;8.63;1.70;;;20.60;99.90;;;;;;5073431;28;20043;-73
2023/08/17 11:34:55;;;;;;;4.93;1.60;;;20.50;99.90;;;;;;5072222;28;20045;-73
2023/08/17 11:37:21;;;;;;;6.97;1.23;;;20.50;99.90;;;;;;5071936;28;20389;-71
2023/08/17 11:39:47;;;;;;;5.10;1.23;;;20.50;99.90;;;;;;5072176;28;20032;-70
2023/08/17 11:42:13;;;;;;;5.32;1.30;;;20.50;99.90;;;;;;5071829;28;20558;-70
2023/08/17 11:44:39;;;;;;;5.32;1.80;;;20.60;99.90;;;;;;5054997;28;20040;-69
2023/08/17 11:47:06;;;;;;;4.40;1.30;;;20.60;99.90;;;;;;5072045;28;20170;-70
2023/08/17 11:49:32;;;;;;;5.20;1.95;;;20.60;99.90;;;;;;5071804;28;20049;-70
2023/08/17 11:51:57;;;;;;;4.78;1.35;;;20.70;99.90;;;;;;5054202;28;20032;-70
2023/08/17 11:54:23;;;;;;;4.80;1.70;;;20.80;99.90;;;;;;5072030;28;20094;-70
2023/08/17 11:56:48;;;;;;;5.30;1.67;;;20.80;99.90;;;;;;5071712;28;20493;-70
2023/08/17 11:59:18;;;;;;;4.78;1.40;;;20.80;99.90;;;;;;5071962;28;20041;-70
2023/08/17 12:01:44;;;;;;;7.85;1.73;;;20.80;99.90;;;;;;5054918;28;20049;-70
2023/08/17 12:04:10;;;;;;;7.63;1.80;;;21.00;99.90;;;;;;5071745;28;20037;-70
2023/08/17 12:06:42;;;;;;;3.05;1.40;;;21.00;99.90;;;;;;5054958;28;20078;-70
2023/08/17 12:09:08;;;;;;;5.65;1.80;;;21.10;99.90;;;;;;5071714;28;20040;-70
2023/08/17 12:11:34;;;;;;;7.45;1.92;;;21.10;99.90;;;;;;5071744;28;20041;-70
2023/08/17 12:14:09;;;;;;;5.70;1.85;;;21.10;99.90;;;;;;5071435;28;20451;-70
2023/08/17 12:16:44;;;;;;;4.50;1.50;;;21.20;99.90;;;;;;5071570;28;20040;-70
2023/08/17 12:19:10;;;;;;;4.45;1.50;;;21.10;99.90;;;;;;5071820;28;20117;-70
2023/08/17 12:21:35;;;;;;;5.18;1.80;;;21.10;99.90;;;;;;5054848;28;20444;-70
2023/08/17 12:24:04;;;;;;;4.65;1.58;;;21.10;99.90;;;;;;5072553;28;20080;-70
2023/08/17 12:26:32;;;;;;;4.65;2.10;;;21.20;99.90;;;;;;5071703;28;20048;-70
2023/08/17 12:28:58;;;;;;;3.92;2.17;;;21.20;99.90;;;;;;5071361;28;20097;-70
2023/08/17 12:31:23;;;;;;;6.85;2.20;;;21.20;99.90;;;;;;5071616;28;20049;-70
2023/08/17 12:33:50;;;;;;;4.90;2.28;;;21.30;99.90;;;;;;5071309;28;20044;-70
2023/08/17 12:36:16;;;;;;;5.63;2.13;;;21.30;99.90;;;;;;5071417;28;20053;-70
2023/08/17 12:38:44;;;;;;;5.75;2.33;;;21.30;99.90;;;;;;5072608;28;20036;-70
2023/08/17 12:41:10;;;;;;;6.30;2.20;;;21.30;99.90;;;;;;5071326;28;20106;-70
2023/08/17 12:43:37;;;;;;;9.00;2.78;;;21.30;99.90;;;;;;5054445;28;20040;-70